sensor_id;sensor_type;location;lat;lon;timestamp;temperature;humidity
71173;DHT22;58875;51.996;4.504;2022-12-18T00:02:15;-1.90;86.01
71173;DHT22;58875;51.996;4.504;2022-12-18T00:04:41;-1.89;85.94
71173;DHT22;58875;51.996;4.504;2022-12-18T00:07:06;-1.89;85.94
71173;DHT22;58875;51.996;4.504;2022-12-18T00:09:32;-1.85;86.03
71173;DHT22;58875;51.996;4.504;2022-12-18T00:11:57;-1.78;85.98
71173;DHT22;58875;51.996;4.504;2022-12-18T00:14:23;-1.78;85.85
71173;DHT22;58875;51.996;4.504;2022-12-18T00:16:48;-1.78;85.94
71173;DHT22;58875;51.996;4.504;2022-12-18T00:19:14;-1.78;86.00
71173;DHT22;58875;51.996;4.504;2022-12-18T00:21:42;-1.79;85.85
71173;DHT22;58875;51.996;4.504;2022-12-18T00:24:08;-1.79;86.30
71173;DHT22;58875;51.996;4.504;2022-12-18T00:26:36;-1.73;85.89
71173;DHT22;58875;51.996;4.504;2022-12-18T00:29:12;-1.66;85.88
71173;DHT22;58875;51.996;4.504;2022-12-18T00:31:40;-1.71;85.50
71173;DHT22;58875;51.996;4.504;2022-12-18T00:34:06;-1.82;85.57
71173;DHT22;58875;51.996;4.504;2022-12-18T00:36:34;-1.81;85.87
71173;DHT22;58875;51.996;4.504;2022-12-18T00:39:02;-1.78;85.68
71173;DHT22;58875;51.996;4.504;2022-12-18T00:41:28;-1.73;85.56
71173;DHT22;58875;51.996;4.504;2022-12-18T00:44:14;-1.62;85.42
71173;DHT22;58875;51.996;4.504;2022-12-18T00:46:41;-1.68;85.30
71173;DHT22;58875;51.996;4.504;2022-12-18T00:49:07;-1.69;85.44
71173;DHT22;58875;51.996;4.504;2022-12-18T00:51:32;-1.69;85.49
71173;DHT22;58875;51.996;4.504;2022-12-18T00:53:58;-1.66;85.39
71173;DHT22;58875;51.996;4.504;2022-12-18T00:56:24;-1.71;85.34
71173;DHT22;58875;51.996;4.504;2022-12-18T00:58:50;-1.85;85.62
71173;DHT22;58875;51.996;4.504;2022-12-18T01:01:16;-1.92;85.84
71173;DHT22;58875;51.996;4.504;2022-12-18T01:03:41;-1.95;85.94
71173;DHT22;58875;51.996;4.504;2022-12-18T01:06:10;-1.92;85.89
71173;DHT22;58875;51.996;4.504;2022-12-18T01:08:37;-1.87;85.80
71173;DHT22;58875;51.996;4.504;2022-12-18T01:11:12;-1.82;85.57
71173;DHT22;58875;51.996;4.504;2022-12-18T01:13:39;-1.85;85.42
71173;DHT22;58875;51.996;4.504;2022-12-18T01:16:05;-1.87;85.54
71173;DHT22;58875;51.996;4.504;2022-12-18T01:18:31;-1.83;85.67
71173;DHT22;58875;51.996;4.504;2022-12-18T01:20:57;-1.75;85.43
71173;DHT22;58875;51.996;4.504;2022-12-18T01:23:22;-1.72;85.41
71173;DHT22;58875;51.996;4.504;2022-12-18T01:25:48;-1.61;85.43
71173;DHT22;58875;51.996;4.504;2022-12-18T01:28:13;-1.58;84.97
71173;DHT22;58875;51.996;4.504;2022-12-18T01:30:39;-1.68;85.01
71173;DHT22;58875;51.996;4.504;2022-12-18T01:33:05;-1.69;84.83
71173;DHT22;58875;51.996;4.504;2022-12-18T01:35:30;-1.71;84.93
71173;DHT22;58875;51.996;4.504;2022-12-18T01:37:56;-1.72;84.87
71173;DHT22;58875;51.996;4.504;2022-12-18T01:40:22;-1.73;84.68
71173;DHT22;58875;51.996;4.504;2022-12-18T01:42:52;-1.65;84.74
71173;DHT22;58875;51.996;4.504;2022-12-18T01:47:55;-1.78;84.95
71173;DHT22;58875;51.996;4.504;2022-12-18T01:50:36;-1.75;85.05
71173;DHT22;58875;51.996;4.504;2022-12-18T01:53:10;-1.69;84.93
71173;DHT22;58875;51.996;4.504;2022-12-18T01:55:45;-1.73;85.03
71173;DHT22;58875;51.996;4.504;2022-12-18T01:58:12;-1.66;84.96
71173;DHT22;58875;51.996;4.504;2022-12-18T02:00:37;-1.69;84.84
71173;DHT22;58875;51.996;4.504;2022-12-18T02:03:03;-1.68;84.84
71173;DHT22;58875;51.996;4.504;2022-12-18T02:05:50;-1.71;84.82
71173;DHT22;58875;51.996;4.504;2022-12-18T02:11:15;-1.75;84.94
71173;DHT22;58875;51.996;4.504;2022-12-18T02:14:01;-1.78;84.97
71173;DHT22;58875;51.996;4.504;2022-12-18T02:22:24;-1.83;85.36
71173;DHT22;58875;51.996;4.504;2022-12-18T02:27:34;-1.81;85.36
71173;DHT22;58875;51.996;4.504;2022-12-18T02:30:04;-1.78;85.23
71173;DHT22;58875;51.996;4.504;2022-12-18T02:32:35;-1.79;85.24
71173;DHT22;58875;51.996;4.504;2022-12-18T02:35:05;-1.76;85.51
71173;DHT22;58875;51.996;4.504;2022-12-18T02:37:37;-1.75;85.47
71173;DHT22;58875;51.996;4.504;2022-12-18T02:40:05;-1.76;85.41
71173;DHT22;58875;51.996;4.504;2022-12-18T02:42:32;-1.73;85.41
71173;DHT22;58875;51.996;4.504;2022-12-18T02:44:57;-1.81;85.22
71173;DHT22;58875;51.996;4.504;2022-12-18T02:47:29;-1.83;85.17
71173;DHT22;58875;51.996;4.504;2022-12-18T02:52:58;-2.17;85.63
71173;DHT22;58875;51.996;4.504;2022-12-18T02:55:48;-2.34;86.04
71173;DHT22;58875;51.996;4.504;2022-12-18T02:58:31;-2.40;86.40
71173;DHT22;58875;51.996;4.504;2022-12-18T03:01:22;-2.32;86.32
71173;DHT22;58875;51.996;4.504;2022-12-18T03:04:01;-2.41;86.34
71173;DHT22;58875;51.996;4.504;2022-12-18T03:06:33;-2.54;86.69
71173;DHT22;58875;51.996;4.504;2022-12-18T03:09:33;-2.54;86.53
71173;DHT22;58875;51.996;4.504;2022-12-18T03:15:17;-2.64;87.07
71173;DHT22;58875;51.996;4.504;2022-12-18T03:18:11;-2.65;87.08
71173;DHT22;58875;51.996;4.504;2022-12-18T03:20:42;-2.65;86.88
71173;DHT22;58875;51.996;4.504;2022-12-18T03:23:14;-2.65;86.92
71173;DHT22;58875;51.996;4.504;2022-12-18T03:25:44;-2.66;86.62
71173;DHT22;58875;51.996;4.504;2022-12-18T03:28:15;-2.81;86.59
71173;DHT22;58875;51.996;4.504;2022-12-18T03:30:44;-2.93;86.86
71173;DHT22;58875;51.996;4.504;2022-12-18T03:33:21;-2.85;87.17
71173;DHT22;58875;51.996;4.504;2022-12-18T03:35:49;-2.79;86.85
71173;DHT22;58875;51.996;4.504;2022-12-18T03:38:15;-2.85;86.68
71173;DHT22;58875;51.996;4.504;2022-12-18T03:48:54;-3.02;86.94
71173;DHT22;58875;51.996;4.504;2022-12-18T03:54:03;-2.81;86.90
71173;DHT22;58875;51.996;4.504;2022-12-18T03:56:36;-2.69;86.66
71173;DHT22;58875;51.996;4.504;2022-12-18T03:59:05;-2.68;86.35
71173;DHT22;58875;51.996;4.504;2022-12-18T04:01:38;-2.68;86.26
71173;DHT22;58875;51.996;4.504;2022-12-18T04:04:08;-2.76;86.09
71173;DHT22;58875;51.996;4.504;2022-12-18T04:06:36;-2.82;86.25
71173;DHT22;58875;51.996;4.504;2022-12-18T04:09:03;-2.89;86.07
71173;DHT22;58875;51.996;4.504;2022-12-18T04:11:29;-2.95;86.14
71173;DHT22;58875;51.996;4.504;2022-12-18T04:13:57;-3.02;86.13
71173;DHT22;58875;51.996;4.504;2022-12-18T04:16:24;-3.03;86.18
71173;DHT22;58875;51.996;4.504;2022-12-18T04:18:50;-3.03;86.05
71173;DHT22;58875;51.996;4.504;2022-12-18T04:21:15;-3.09;85.92
71173;DHT22;58875;51.996;4.504;2022-12-18T04:23:41;-3.19;86.05
71173;DHT22;58875;51.996;4.504;2022-12-18T04:26:06;-3.15;86.04
71173;DHT22;58875;51.996;4.504;2022-12-18T04:28:32;-3.15;85.99
71173;DHT22;58875;51.996;4.504;2022-12-18T04:30:57;-3.19;85.67
71173;DHT22;58875;51.996;4.504;2022-12-18T04:33:23;-3.26;85.53
71173;DHT22;58875;51.996;4.504;2022-12-18T04:35:48;-3.30;85.50
71173;DHT22;58875;51.996;4.504;2022-12-18T04:38:14;-3.29;85.51
71173;DHT22;58875;51.996;4.504;2022-12-18T04:40:40;-3.29;85.43
71173;DHT22;58875;51.996;4.504;2022-12-18T04:43:05;-3.37;85.46
71173;DHT22;58875;51.996;4.504;2022-12-18T04:45:31;-3.43;85.41
71173;DHT22;58875;51.996;4.504;2022-12-18T04:47:58;-3.42;85.58
71173;DHT22;58875;51.996;4.504;2022-12-18T04:50:23;-3.40;85.28
71173;DHT22;58875;51.996;4.504;2022-12-18T04:52:49;-3.42;85.22
71173;DHT22;58875;51.996;4.504;2022-12-18T04:55:15;-3.40;85.14
71173;DHT22;58875;51.996;4.504;2022-12-18T04:57:40;-3.40;85.06
71173;DHT22;58875;51.996;4.504;2022-12-18T05:00:06;-3.44;84.95
71173;DHT22;58875;51.996;4.504;2022-12-18T05:02:32;-3.46;84.98
71173;DHT22;58875;51.996;4.504;2022-12-18T05:04:57;-3.43;84.88
71173;DHT22;58875;51.996;4.504;2022-12-18T05:07:23;-3.42;84.80
71173;DHT22;58875;51.996;4.504;2022-12-18T05:09:49;-3.48;84.70
71173;DHT22;58875;51.996;4.504;2022-12-18T05:12:14;-3.50;84.68
71173;DHT22;58875;51.996;4.504;2022-12-18T05:14:39;-3.47;84.79
71173;DHT22;58875;51.996;4.504;2022-12-18T05:17:05;-3.44;84.54
71173;DHT22;58875;51.996;4.504;2022-12-18T05:19:31;-3.47;84.67
71173;DHT22;58875;51.996;4.504;2022-12-18T05:21:56;-3.46;84.71
71173;DHT22;58875;51.996;4.504;2022-12-18T05:24:22;-3.46;84.74
71173;DHT22;58875;51.996;4.504;2022-12-18T05:26:48;-3.44;84.77
71173;DHT22;58875;51.996;4.504;2022-12-18T05:29:14;-3.43;84.65
71173;DHT22;58875;51.996;4.504;2022-12-18T05:31:40;-3.43;84.52
71173;DHT22;58875;51.996;4.504;2022-12-18T05:34:05;-3.43;84.42
71173;DHT22;58875;51.996;4.504;2022-12-18T05:36:31;-3.46;84.37
71173;DHT22;58875;51.996;4.504;2022-12-18T05:38:57;-3.51;84.21
71173;DHT22;58875;51.996;4.504;2022-12-18T05:41:22;-3.50;84.11
71173;DHT22;58875;51.996;4.504;2022-12-18T05:43:48;-3.57;83.26
71173;DHT22;58875;51.996;4.504;2022-12-18T05:46:16;-3.79;83.79
71173;DHT22;58875;51.996;4.504;2022-12-18T05:48:44;-3.81;84.08
71173;DHT22;58875;51.996;4.504;2022-12-18T05:51:13;-3.91;84.10
71173;DHT22;58875;51.996;4.504;2022-12-18T05:53:40;-3.91;84.37
71173;DHT22;58875;51.996;4.504;2022-12-18T05:56:09;-3.91;84.20
71173;DHT22;58875;51.996;4.504;2022-12-18T05:58:36;-3.87;84.18
71173;DHT22;58875;51.996;4.504;2022-12-18T06:01:12;-3.85;84.09
71173;DHT22;58875;51.996;4.504;2022-12-18T06:03:38;-3.84;83.81
71173;DHT22;58875;51.996;4.504;2022-12-18T06:06:04;-3.88;83.90
71173;DHT22;58875;51.996;4.504;2022-12-18T06:08:29;-3.87;83.92
71173;DHT22;58875;51.996;4.504;2022-12-18T06:10:55;-3.85;84.06
71173;DHT22;58875;51.996;4.504;2022-12-18T06:13:21;-3.74;83.82
71173;DHT22;58875;51.996;4.504;2022-12-18T06:15:47;-3.84;83.99
71173;DHT22;58875;51.996;4.504;2022-12-18T06:18:12;-3.87;83.96
71173;DHT22;58875;51.996;4.504;2022-12-18T06:20:38;-3.94;84.26
71173;DHT22;58875;51.996;4.504;2022-12-18T06:23:05;-3.88;84.21
71173;DHT22;58875;51.996;4.504;2022-12-18T06:25:31;-3.85;83.96
71173;DHT22;58875;51.996;4.504;2022-12-18T06:27:56;-3.87;84.10
71173;DHT22;58875;51.996;4.504;2022-12-18T06:30:22;-3.87;83.93
71173;DHT22;58875;51.996;4.504;2022-12-18T06:32:48;-3.79;83.69
71173;DHT22;58875;51.996;4.504;2022-12-18T06:35:14;-3.81;83.36
71173;DHT22;58875;51.996;4.504;2022-12-18T06:37:39;-3.81;83.29
71173;DHT22;58875;51.996;4.504;2022-12-18T06:40:06;-3.78;83.27
71173;DHT22;58875;51.996;4.504;2022-12-18T06:42:31;-3.78;82.83
71173;DHT22;58875;51.996;4.504;2022-12-18T06:44:57;-3.79;82.97
71173;DHT22;58875;51.996;4.504;2022-12-18T06:47:23;-3.95;83.03
71173;DHT22;58875;51.996;4.504;2022-12-18T06:49:48;-3.95;83.34
71173;DHT22;58875;51.996;4.504;2022-12-18T06:52:14;-3.91;82.86
71173;DHT22;58875;51.996;4.504;2022-12-18T06:54:39;-3.98;82.84
71173;DHT22;58875;51.996;4.504;2022-12-18T06:57:05;-4.03;83.11
71173;DHT22;58875;51.996;4.504;2022-12-18T06:59:31;-4.06;83.10
71173;DHT22;58875;51.996;4.504;2022-12-18T07:01:56;-4.06;83.09
71173;DHT22;58875;51.996;4.504;2022-12-18T07:04:22;-4.08;82.77
71173;DHT22;58875;51.996;4.504;2022-12-18T07:06:47;-4.08;82.72
71173;DHT22;58875;51.996;4.504;2022-12-18T07:09:12;-4.16;82.89
71173;DHT22;58875;51.996;4.504;2022-12-18T07:11:38;-4.22;82.85
71173;DHT22;58875;51.996;4.504;2022-12-18T07:14:04;-4.16;82.93
71173;DHT22;58875;51.996;4.504;2022-12-18T07:16:29;-4.15;82.57
71173;DHT22;58875;51.996;4.504;2022-12-18T07:18:55;-4.18;82.43
71173;DHT22;58875;51.996;4.504;2022-12-18T07:23:49;-4.23;82.91
71173;DHT22;58875;51.996;4.504;2022-12-18T07:26:17;-4.28;82.87
71173;DHT22;58875;51.996;4.504;2022-12-18T07:28:43;-4.19;82.74
71173;DHT22;58875;51.996;4.504;2022-12-18T07:31:16;-4.18;82.96
71173;DHT22;58875;51.996;4.504;2022-12-18T07:33:45;-4.12;82.82
71173;DHT22;58875;51.996;4.504;2022-12-18T07:36:11;-4.08;82.69
71173;DHT22;58875;51.996;4.504;2022-12-18T07:38:37;-3.98;82.63
71173;DHT22;58875;51.996;4.504;2022-12-18T07:41:05;-4.02;82.60
71173;DHT22;58875;51.996;4.504;2022-12-18T07:43:31;-4.03;82.61
71173;DHT22;58875;51.996;4.504;2022-12-18T07:45:57;-3.99;82.14
71173;DHT22;58875;51.996;4.504;2022-12-18T07:48:22;-3.98;82.08
71173;DHT22;58875;51.996;4.504;2022-12-18T07:50:48;-3.97;81.93
71173;DHT22;58875;51.996;4.504;2022-12-18T07:53:13;-3.98;81.93
71173;DHT22;58875;51.996;4.504;2022-12-18T07:55:40;-3.94;81.82
71173;DHT22;58875;51.996;4.504;2022-12-18T07:58:06;-3.97;81.71
71173;DHT22;58875;51.996;4.504;2022-12-18T08:00:32;-3.95;81.58
71173;DHT22;58875;51.996;4.504;2022-12-18T08:02:58;-3.84;81.53
71173;DHT22;58875;51.996;4.504;2022-12-18T08:05:23;-3.89;81.13
71173;DHT22;58875;51.996;4.504;2022-12-18T08:07:49;-3.89;81.23
71173;DHT22;58875;51.996;4.504;2022-12-18T08:10:15;-3.89;80.96
71173;DHT22;58875;51.996;4.504;2022-12-18T08:12:41;-3.94;81.32
71173;DHT22;58875;51.996;4.504;2022-12-18T08:15:07;-3.92;81.45
71173;DHT22;58875;51.996;4.504;2022-12-18T08:17:33;-3.94;81.28
71173;DHT22;58875;51.996;4.504;2022-12-18T08:20:00;-3.98;81.47
71173;DHT22;58875;51.996;4.504;2022-12-18T08:22:26;-3.91;81.44
71173;DHT22;58875;51.996;4.504;2022-12-18T08:24:52;-3.89;81.29
71173;DHT22;58875;51.996;4.504;2022-12-18T08:27:18;-3.92;81.41
71173;DHT22;58875;51.996;4.504;2022-12-18T08:29:43;-3.87;81.60
71173;DHT22;58875;51.996;4.504;2022-12-18T08:32:09;-3.87;81.70
71173;DHT22;58875;51.996;4.504;2022-12-18T08:34:35;-3.77;81.53
71173;DHT22;58875;51.996;4.504;2022-12-18T08:37:01;-3.77;81.08
71173;DHT22;58875;51.996;4.504;2022-12-18T08:39:26;-3.78;81.34
71173;DHT22;58875;51.996;4.504;2022-12-18T08:41:52;-3.63;81.35
71173;DHT22;58875;51.996;4.504;2022-12-18T08:44:35;-3.56;81.33
71173;DHT22;58875;51.996;4.504;2022-12-18T08:47:05;-3.42;81.01
71173;DHT22;58875;51.996;4.504;2022-12-18T08:49:31;-3.43;80.29
71173;DHT22;58875;51.996;4.504;2022-12-18T08:51:57;-3.33;80.19
71173;DHT22;58875;51.996;4.504;2022-12-18T08:54:24;-3.35;80.58
71173;DHT22;58875;51.996;4.504;2022-12-18T08:56:50;-3.29;80.72
71173;DHT22;58875;51.996;4.504;2022-12-18T08:59:19;-3.21;80.56
71173;DHT22;58875;51.996;4.504;2022-12-18T09:01:45;-3.10;80.41
71173;DHT22;58875;51.996;4.504;2022-12-18T09:04:12;-3.00;80.04
71173;DHT22;58875;51.996;4.504;2022-12-18T09:06:38;-2.93;79.69
71173;DHT22;58875;51.996;4.504;2022-12-18T09:09:04;-2.91;79.33
71173;DHT22;58875;51.996;4.504;2022-12-18T09:11:32;-2.91;79.44
71173;DHT22;58875;51.996;4.504;2022-12-18T09:13:59;-2.96;79.59
71173;DHT22;58875;51.996;4.504;2022-12-18T09:16:27;-3.06;79.58
71173;DHT22;58875;51.996;4.504;2022-12-18T09:18:55;-3.10;79.88
71173;DHT22;58875;51.996;4.504;2022-12-18T09:21:26;-3.06;80.06
71173;DHT22;58875;51.996;4.504;2022-12-18T09:23:54;-3.07;79.90
71173;DHT22;58875;51.996;4.504;2022-12-18T09:26:21;-2.99;79.95
71173;DHT22;58875;51.996;4.504;2022-12-18T09:28:47;-3.02;80.07
71173;DHT22;58875;51.996;4.504;2022-12-18T09:31:13;-2.99;80.00
71173;DHT22;58875;51.996;4.504;2022-12-18T09:33:39;-3.02;80.20
71173;DHT22;58875;51.996;4.504;2022-12-18T09:36:07;-2.96;80.25
71173;DHT22;58875;51.996;4.504;2022-12-18T09:38:34;-2.92;80.35
71173;DHT22;58875;51.996;4.504;2022-12-18T09:43:46;-2.85;80.58
71173;DHT22;58875;51.996;4.504;2022-12-18T09:46:20;-2.86;80.33
71173;DHT22;58875;51.996;4.504;2022-12-18T09:48:53;-2.78;80.49
71173;DHT22;58875;51.996;4.504;2022-12-18T09:51:38;-2.69;80.22
71173;DHT22;58875;51.996;4.504;2022-12-18T09:54:33;-2.58;79.95
71173;DHT22;58875;51.996;4.504;2022-12-18T09:56:57;-2.65;79.89
71173;DHT22;58875;51.996;4.504;2022-12-18T09:59:30;-2.71;80.52
71173;DHT22;58875;51.996;4.504;2022-12-18T10:01:57;-2.60;80.15
71173;DHT22;58875;51.996;4.504;2022-12-18T10:04:24;-2.53;80.49
71173;DHT22;58875;51.996;4.504;2022-12-18T10:07:11;-2.48;80.04
71173;DHT22;58875;51.996;4.504;2022-12-18T10:12:34;-2.43;79.75
71173;DHT22;58875;51.996;4.504;2022-12-18T10:15:30;-2.33;79.60
71173;DHT22;58875;51.996;4.504;2022-12-18T10:18:55;-2.27;79.36
71173;DHT22;58875;51.996;4.504;2022-12-18T10:21:11;-2.19;79.22
71173;DHT22;58875;51.996;4.504;2022-12-18T10:24:12;-2.09;79.16
71173;DHT22;58875;51.996;4.504;2022-12-18T10:26:41;-2.06;78.99
71173;DHT22;58875;51.996;4.504;2022-12-18T10:29:12;-2.11;78.75
71173;DHT22;58875;51.996;4.504;2022-12-18T10:31:39;-2.07;78.88
71173;DHT22;58875;51.996;4.504;2022-12-18T10:34:10;-2.00;79.44
71173;DHT22;58875;51.996;4.504;2022-12-18T10:36:36;-1.97;79.62
71173;DHT22;58875;51.996;4.504;2022-12-18T10:39:34;-1.95;78.40
71173;DHT22;58875;51.996;4.504;2022-12-18T10:42:16;-1.85;78.95
71173;DHT22;58875;51.996;4.504;2022-12-18T10:44:41;-1.82;78.60
71173;DHT22;58875;51.996;4.504;2022-12-18T10:47:14;-1.87;78.72
71173;DHT22;58875;51.996;4.504;2022-12-18T10:49:50;-1.82;78.97
71173;DHT22;58875;51.996;4.504;2022-12-18T10:52:22;-1.68;78.98
71173;DHT22;58875;51.996;4.504;2022-12-18T10:54:55;-1.61;78.51
71173;DHT22;58875;51.996;4.504;2022-12-18T10:59:56;-1.52;78.12
71173;DHT22;58875;51.996;4.504;2022-12-18T11:02:36;-1.62;78.05
71173;DHT22;58875;51.996;4.504;2022-12-18T11:05:04;-1.62;78.42
71173;DHT22;58875;51.996;4.504;2022-12-18T11:07:50;-1.58;78.72
71173;DHT22;58875;51.996;4.504;2022-12-18T11:10:18;-1.52;78.66
71173;DHT22;58875;51.996;4.504;2022-12-18T11:12:44;-1.40;78.92
71173;DHT22;58875;51.996;4.504;2022-12-18T11:15:20;-1.27;78.29
71173;DHT22;58875;51.996;4.504;2022-12-18T11:17:51;-1.25;78.02
71173;DHT22;58875;51.996;4.504;2022-12-18T11:20:30;-1.24;77.62
71173;DHT22;58875;51.996;4.504;2022-12-18T11:23:10;-1.14;77.59
71173;DHT22;58875;51.996;4.504;2022-12-18T11:25:37;-1.17;77.22
71173;DHT22;58875;51.996;4.504;2022-12-18T11:28:28;-1.05;77.80
71173;DHT22;58875;51.996;4.504;2022-12-18T11:34:25;-1.10;77.20
71173;DHT22;58875;51.996;4.504;2022-12-18T11:36:52;-1.01;77.98
71173;DHT22;58875;51.996;4.504;2022-12-18T11:39:34;-1.11;77.78
71173;DHT22;58875;51.996;4.504;2022-12-18T11:42:12;-1.05;77.51
71173;DHT22;58875;51.996;4.504;2022-12-18T11:50:18;-0.90;77.69
71173;DHT22;58875;51.996;4.504;2022-12-18T11:52:44;-0.83;77.11
71173;DHT22;58875;51.996;4.504;2022-12-18T11:58:18;-0.97;77.41
71173;DHT22;58875;51.996;4.504;2022-12-18T12:01:10;-0.94;77.08
71173;DHT22;58875;51.996;4.504;2022-12-18T12:14:54;-0.79;77.64
71173;DHT22;58875;51.996;4.504;2022-12-18T12:17:40;-0.80;77.33
71173;DHT22;58875;51.996;4.504;2022-12-18T12:25:44;-0.72;76.63
71173;DHT22;58875;51.996;4.504;2022-12-18T12:31:20;-0.60;76.72
71173;DHT22;58875;51.996;4.504;2022-12-18T12:39:34;-0.29;76.79
71173;DHT22;58875;51.996;4.504;2022-12-18T12:42:05;-0.23;76.67
71173;DHT22;58875;51.996;4.504;2022-12-18T12:44:58;-0.14;75.37
71173;DHT22;58875;51.996;4.504;2022-12-18T12:47:30;-0.21;74.90
71173;DHT22;58875;51.996;4.504;2022-12-18T12:50:02;-0.22;75.32
71173;DHT22;58875;51.996;4.504;2022-12-18T12:52:39;-0.23;75.59
71173;DHT22;58875;51.996;4.504;2022-12-18T12:55:24;-0.22;75.89
71173;DHT22;58875;51.996;4.504;2022-12-18T12:58:07;-0.28;75.63
71173;DHT22;58875;51.996;4.504;2022-12-18T13:01:04;-0.12;75.83
71173;DHT22;58875;51.996;4.504;2022-12-18T13:09:06;-0.26;75.32
71173;DHT22;58875;51.996;4.504;2022-12-18T13:11:38;-0.23;75.25
71173;DHT22;58875;51.996;4.504;2022-12-18T13:14:44;-0.18;75.33
71173;DHT22;58875;51.996;4.504;2022-12-18T13:20:08;-0.22;76.10
71173;DHT22;58875;51.996;4.504;2022-12-18T13:25:32;-0.22;75.95
71173;DHT22;58875;51.996;4.504;2022-12-18T13:43:44;-0.21;76.49
71173;DHT22;58875;51.996;4.504;2022-12-18T13:49:25;-0.21;76.57
71173;DHT22;58875;51.996;4.504;2022-12-18T13:51:55;-0.26;76.81
71173;DHT22;58875;51.996;4.504;2022-12-18T13:54:36;-0.18;76.74
71173;DHT22;58875;51.996;4.504;2022-12-18T13:57:04;-0.11;76.97
71173;DHT22;58875;51.996;4.504;2022-12-18T13:59:36;0.00;76.60
71173;DHT22;58875;51.996;4.504;2022-12-18T14:02:21;0.05;76.15
71173;DHT22;58875;51.996;4.504;2022-12-18T14:04:48;-0.02;76.30
71173;DHT22;58875;51.996;4.504;2022-12-18T14:07:32;0.06;76.37
71173;DHT22;58875;51.996;4.504;2022-12-18T14:10:00;0.05;75.85
71173;DHT22;58875;51.996;4.504;2022-12-18T14:12:28;0.10;76.00
71173;DHT22;58875;51.996;4.504;2022-12-18T14:20:52;0.12;76.55
71173;DHT22;58875;51.996;4.504;2022-12-18T14:23:39;0.19;76.58
71173;DHT22;58875;51.996;4.504;2022-12-18T14:28:50;0.10;76.29
71173;DHT22;58875;51.996;4.504;2022-12-18T14:31:27;0.10;76.04
71173;DHT22;58875;51.996;4.504;2022-12-18T14:33:53;0.17;76.04
71173;DHT22;58875;51.996;4.504;2022-12-18T14:36:27;0.12;75.93
71173;DHT22;58875;51.996;4.504;2022-12-18T14:38:55;0.07;76.07
71173;DHT22;58875;51.996;4.504;2022-12-18T14:41:22;0.12;75.96
71173;DHT22;58875;51.996;4.504;2022-12-18T14:43:50;0.17;76.02
71173;DHT22;58875;51.996;4.504;2022-12-18T14:46:39;0.14;76.10
71173;DHT22;58875;51.996;4.504;2022-12-18T14:49:32;0.13;75.78
71173;DHT22;58875;51.996;4.504;2022-12-18T14:52:03;0.06;76.40
71173;DHT22;58875;51.996;4.504;2022-12-18T14:54:31;0.13;76.65
71173;DHT22;58875;51.996;4.504;2022-12-18T14:57:05;0.19;76.41
71173;DHT22;58875;51.996;4.504;2022-12-18T14:59:32;0.16;76.68
71173;DHT22;58875;51.996;4.504;2022-12-18T15:02:21;0.16;76.30
71173;DHT22;58875;51.996;4.504;2022-12-18T15:05:00;0.23;76.30
71173;DHT22;58875;51.996;4.504;2022-12-18T15:07:26;0.14;76.33
71173;DHT22;58875;51.996;4.504;2022-12-18T15:10:11;0.21;76.22
71173;DHT22;58875;51.996;4.504;2022-12-18T15:12:43;0.10;76.15
71173;DHT22;58875;51.996;4.504;2022-12-18T15:23:04;0.34;75.80
71173;DHT22;58875;51.996;4.504;2022-12-18T15:25:36;0.40;75.63
71173;DHT22;58875;51.996;4.504;2022-12-18T15:28:04;0.41;75.48
71173;DHT22;58875;51.996;4.504;2022-12-18T15:33:40;0.43;75.21
71173;DHT22;58875;51.996;4.504;2022-12-18T15:36:13;0.41;75.30
71173;DHT22;58875;51.996;4.504;2022-12-18T15:38:40;0.44;75.03
71173;DHT22;58875;51.996;4.504;2022-12-18T15:41:08;0.50;75.28
71173;DHT22;58875;51.996;4.504;2022-12-18T15:43:37;0.51;74.93
71173;DHT22;58875;51.996;4.504;2022-12-18T15:46:18;0.54;75.05
71173;DHT22;58875;51.996;4.504;2022-12-18T15:48:52;0.51;75.19
71173;DHT22;58875;51.996;4.504;2022-12-18T15:51:21;0.57;74.77
71173;DHT22;58875;51.996;4.504;2022-12-18T15:53:56;0.60;74.76
71173;DHT22;58875;51.996;4.504;2022-12-18T15:56:23;0.58;74.47
71173;DHT22;58875;51.996;4.504;2022-12-18T15:59:10;0.54;74.22
71173;DHT22;58875;51.996;4.504;2022-12-18T16:01:37;0.64;74.25
71173;DHT22;58875;51.996;4.504;2022-12-18T16:04:03;0.64;74.18
71173;DHT22;58875;51.996;4.504;2022-12-18T16:06:28;0.65;73.76
71173;DHT22;58875;51.996;4.504;2022-12-18T16:08:54;0.67;73.64
71173;DHT22;58875;51.996;4.504;2022-12-18T16:11:26;0.71;73.35
71173;DHT22;58875;51.996;4.504;2022-12-18T16:14:19;0.78;72.54
71173;DHT22;58875;51.996;4.504;2022-12-18T16:16:48;0.71;72.59
71173;DHT22;58875;51.996;4.504;2022-12-18T16:19:14;0.80;72.61
71173;DHT22;58875;51.996;4.504;2022-12-18T16:21:39;0.77;72.73
71173;DHT22;58875;51.996;4.504;2022-12-18T16:24:08;0.82;72.56
71173;DHT22;58875;51.996;4.504;2022-12-18T16:26:37;0.77;72.34
71173;DHT22;58875;51.996;4.504;2022-12-18T16:29:03;0.80;72.68
71173;DHT22;58875;51.996;4.504;2022-12-18T16:31:29;0.85;72.73
71173;DHT22;58875;51.996;4.504;2022-12-18T16:34:19;0.87;72.54
71173;DHT22;58875;51.996;4.504;2022-12-18T16:36:50;0.88;72.38
71173;DHT22;58875;51.996;4.504;2022-12-18T16:39:17;0.91;72.47
71173;DHT22;58875;51.996;4.504;2022-12-18T16:41:43;0.88;72.63
71173;DHT22;58875;51.996;4.504;2022-12-18T16:44:09;0.85;72.73
71173;DHT22;58875;51.996;4.504;2022-12-18T16:46:36;0.88;72.50
71173;DHT22;58875;51.996;4.504;2022-12-18T16:49:02;0.88;72.81
71173;DHT22;58875;51.996;4.504;2022-12-18T16:51:31;0.93;72.54
71173;DHT22;58875;51.996;4.504;2022-12-18T16:53:56;1.03;72.75
71173;DHT22;58875;51.996;4.504;2022-12-18T16:56:23;0.98;72.65
71173;DHT22;58875;51.996;4.504;2022-12-18T16:58:53;1.02;72.86
71173;DHT22;58875;51.996;4.504;2022-12-18T17:01:20;0.89;72.69
71173;DHT22;58875;51.996;4.504;2022-12-18T17:06:19;0.98;72.73
71173;DHT22;58875;51.996;4.504;2022-12-18T17:08:44;1.03;72.84
71173;DHT22;58875;51.996;4.504;2022-12-18T17:11:10;1.02;72.97
71173;DHT22;58875;51.996;4.504;2022-12-18T17:13:35;0.95;72.88
71173;DHT22;58875;51.996;4.504;2022-12-18T17:16:02;0.98;73.05
71173;DHT22;58875;51.996;4.504;2022-12-18T17:18:29;1.02;72.89
71173;DHT22;58875;51.996;4.504;2022-12-18T17:21:03;1.05;73.34
71173;DHT22;58875;51.996;4.504;2022-12-18T17:23:29;1.05;73.19
71173;DHT22;58875;51.996;4.504;2022-12-18T17:25:59;1.02;73.60
71173;DHT22;58875;51.996;4.504;2022-12-18T17:28:26;1.05;73.50
71173;DHT22;58875;51.996;4.504;2022-12-18T17:30:54;1.03;73.58
71173;DHT22;58875;51.996;4.504;2022-12-18T17:33:21;1.05;73.45
71173;DHT22;58875;51.996;4.504;2022-12-18T17:35:47;1.05;73.45
71173;DHT22;58875;51.996;4.504;2022-12-18T17:38:13;1.12;73.59
71173;DHT22;58875;51.996;4.504;2022-12-18T17:40:39;0.99;73.79
71173;DHT22;58875;51.996;4.504;2022-12-18T17:43:06;0.95;74.34
71173;DHT22;58875;51.996;4.504;2022-12-18T17:45:37;1.05;73.97
71173;DHT22;58875;51.996;4.504;2022-12-18T17:48:07;1.03;73.99
71173;DHT22;58875;51.996;4.504;2022-12-18T17:50:33;1.02;74.05
71173;DHT22;58875;51.996;4.504;2022-12-18T17:53:03;1.15;73.97
71173;DHT22;58875;51.996;4.504;2022-12-18T17:55:28;1.16;73.67
71173;DHT22;58875;51.996;4.504;2022-12-18T17:57:54;1.22;73.98
71173;DHT22;58875;51.996;4.504;2022-12-18T18:00:20;1.25;73.67
71173;DHT22;58875;51.996;4.504;2022-12-18T18:02:46;1.22;73.57
71173;DHT22;58875;51.996;4.504;2022-12-18T18:05:12;1.23;73.73